Ardenhurst, Minnesota
Current Conditions -  °F | °C
As of 11:53 PM on Saturday 20 Dec 2014 (Local Time) from KFOZ Reporting Station
Unknown Precip Unknown Precip  
Wind Chill: 18°   Ceiling: 400
Heat Index: 28°   Visibility: 4mi
Dew Point: 27°   Wind: 12mph
Humidity: 93%   Direction: 170°S
Pressure: 29.95"   Gusts: 18mph
Location:  47.8312°N, 94.1459°W
Report Text: KFOZ 210553Z AUTO 17010G16KT 4SM UP OVC004 M02/M03 A2995 RMK AO2
Loading
Personal Weather Stations






























Interactive Weather Map New forecast layout! Learn more

10-Day Weather Forecast

Advertisements
Track Severe Weather on mobile